createdAt,value
2019-04-25T00:02:17.269Z,1.50
2019-04-25T00:04:46.817Z,1.27
2019-04-25T00:07:16.349Z,1.30
2019-04-25T00:09:52.347Z,1.23
2019-04-25T00:12:22.386Z,1.83
2019-04-25T00:14:52.063Z,1.43
2019-04-25T00:17:22.888Z,1.17
2019-04-25T00:19:52.870Z,1.40
2019-04-25T00:22:44.854Z,1.27
2019-04-25T00:25:31.430Z,1.30
2019-04-25T00:28:01.839Z,1.40
2019-04-25T00:30:33.018Z,1.50
2019-04-25T00:33:02.499Z,1.30
2019-04-25T00:35:31.965Z,1.47
2019-04-25T00:38:02.366Z,1.70
2019-04-25T00:40:32.019Z,1.77
2019-04-25T00:43:01.652Z,1.60
2019-04-25T00:45:31.741Z,1.70
2019-04-25T00:48:04.016Z,1.60
2019-04-25T00:50:32.737Z,1.50
2019-04-25T00:53:02.240Z,1.40
2019-04-25T00:55:31.845Z,1.53
2019-04-25T00:58:07.778Z,1.60
2019-04-25T01:00:58.789Z,1.70
2019-04-25T01:03:31.705Z,1.50
2019-04-25T01:06:03.358Z,1.80
2019-04-25T01:08:32.530Z,1.70
2019-04-25T01:11:02.129Z,1.73
2019-04-25T01:13:32.176Z,1.40
2019-04-25T01:16:03.936Z,1.73
2019-04-25T01:18:33.733Z,1.80
2019-04-25T01:21:04.472Z,1.70
2019-04-25T01:23:34.086Z,1.70
2019-04-25T01:26:04.441Z,1.77
2019-04-25T01:28:35.466Z,1.70
2019-04-25T01:31:06.795Z,1.80
2019-04-25T01:33:36.363Z,1.60
2019-04-25T01:36:23.499Z,1.97
2019-04-25T01:39:00.987Z,1.90
2019-04-25T01:41:55.318Z,1.73
2019-04-25T01:44:29.415Z,1.53
2019-04-25T01:46:58.851Z,1.90
2019-04-25T01:49:28.358Z,2.00
2019-04-25T01:51:58.607Z,2.17
2019-04-25T01:54:28.929Z,1.90
2019-04-25T01:56:59.336Z,2.07
2019-04-25T01:59:28.819Z,2.23
2019-04-25T02:01:58.851Z,2.20
2019-04-25T02:04:28.646Z,2.00
2019-04-25T02:06:58.964Z,2.10
2019-04-25T02:09:29.007Z,2.37
2019-04-25T02:12:08.537Z,2.13
2019-04-25T02:14:38.211Z,2.00
2019-04-25T02:17:07.677Z,2.00
2019-04-25T02:19:37.158Z,1.90
2019-04-25T02:22:06.744Z,1.80
2019-04-25T02:24:36.218Z,2.00
2019-04-25T02:27:05.891Z,1.87
2019-04-25T02:29:35.361Z,1.77
2019-04-25T02:32:09.000Z,1.60
2019-04-25T02:34:36.549Z,1.93
2019-04-25T02:37:09.327Z,1.70
2019-04-25T02:39:38.672Z,1.97
2019-04-25T02:42:08.774Z,1.83
2019-04-25T02:44:41.641Z,1.97
2019-04-25T02:47:28.764Z,2.13
2019-04-25T02:50:26.128Z,1.70
2019-04-25T02:53:07.043Z,1.67
2019-04-25T02:55:37.646Z,1.93
2019-04-25T02:58:10.003Z,2.00
2019-04-25T03:00:51.733Z,2.00
2019-04-25T03:03:09.803Z,1.57
2019-04-25T03:05:39.320Z,1.73
2019-04-25T03:08:10.517Z,1.87
2019-04-25T03:10:40.022Z,1.40
2019-04-25T03:13:11.698Z,1.90
2019-04-25T03:15:40.710Z,1.77
2019-04-25T03:18:12.343Z,1.70
2019-04-25T03:20:55.761Z,2.00
2019-04-25T03:23:38.021Z,1.97
2019-04-25T03:26:07.681Z,2.07
2019-04-25T03:28:37.157Z,1.70
2019-04-25T03:31:13.277Z,2.03
2019-04-25T03:33:38.625Z,1.90
2019-04-25T03:36:09.226Z,1.77
2019-04-25T03:38:39.138Z,1.70
2019-04-25T03:41:08.754Z,1.70
2019-04-25T03:43:38.221Z,1.63
2019-04-25T03:46:08.278Z,1.80
2019-04-25T03:48:37.892Z,1.87
2019-04-25T03:51:08.023Z,1.70
2019-04-25T03:53:37.609Z,2.00
2019-04-25T03:56:07.342Z,1.83
2019-04-25T03:58:37.232Z,2.00
2019-04-25T04:01:08.182Z,1.70
2019-04-25T04:03:37.857Z,1.80
2019-04-25T04:06:08.615Z,1.70
2019-04-25T04:08:38.657Z,2.10
2019-04-25T04:11:08.694Z,1.73
2019-04-25T04:13:38.204Z,2.03
2019-04-25T04:16:08.403Z,2.23
2019-04-25T04:18:44.213Z,1.90
2019-04-25T04:21:35.852Z,2.00
2019-04-25T04:24:30.071Z,2.10
2019-04-25T04:27:15.574Z,1.73
2019-04-25T04:29:45.570Z,2.00
2019-04-25T04:32:16.331Z,1.70
2019-04-25T04:34:46.145Z,1.60
2019-04-25T04:37:16.223Z,1.90
2019-04-25T04:39:45.873Z,2.00
2019-04-25T04:42:16.082Z,1.97
2019-04-25T04:44:45.748Z,1.97
2019-04-25T04:47:15.509Z,2.00
2019-04-25T04:49:45.299Z,1.80
2019-04-25T04:52:15.787Z,2.10
2019-04-25T04:54:45.329Z,2.03
2019-04-25T04:57:26.323Z,2.40
2019-04-25T04:59:45.951Z,2.07
2019-04-25T05:02:43.469Z,2.03
2019-04-25T05:05:24.753Z,2.00
2019-04-25T05:08:11.074Z,2.07
2019-04-25T05:10:40.782Z,2.07
2019-04-25T05:13:10.272Z,2.00
2019-04-25T05:15:39.730Z,1.87
2019-04-25T05:18:09.193Z,1.90
2019-04-25T05:20:38.649Z,2.07
2019-04-25T05:23:08.985Z,1.70
2019-04-25T05:25:38.765Z,2.03
2019-04-25T05:28:08.222Z,1.83
2019-04-25T05:30:53.436Z,2.10
2019-04-25T05:33:24.258Z,1.60
2019-04-25T05:35:54.005Z,1.80
2019-04-25T05:38:24.317Z,2.13
2019-04-25T05:41:01.982Z,2.00
2019-04-25T05:43:31.492Z,2.10
2019-04-25T05:46:01.100Z,1.70
2019-04-25T05:48:30.571Z,1.70
2019-04-25T05:51:00.032Z,2.00
2019-04-25T05:53:29.497Z,2.07
2019-04-25T05:55:59.009Z,1.73
2019-04-25T05:58:28.482Z,1.93
2019-04-25T06:00:57.994Z,1.60
2019-04-25T06:03:27.605Z,1.57
2019-04-25T06:05:57.194Z,1.67
2019-04-25T06:08:28.243Z,1.80
2019-04-25T06:11:04.120Z,1.60
2019-04-25T06:13:38.383Z,1.67
2019-04-25T06:16:16.529Z,1.60
2019-04-25T06:18:52.022Z,1.57
2019-04-25T06:21:23.008Z,1.40
2019-04-25T06:24:18.311Z,1.50
2019-04-25T06:27:16.599Z,1.53
2019-04-25T06:29:57.650Z,1.57
2019-04-25T06:32:19.004Z,1.30
2019-04-25T06:34:48.480Z,1.70
2019-04-25T06:37:17.961Z,1.50
2019-04-25T06:39:47.537Z,1.40
2019-04-25T06:42:16.999Z,1.70
2019-04-25T06:44:53.546Z,1.37
2019-04-25T06:47:34.643Z,1.50
2019-04-25T06:50:04.317Z,1.30
2019-04-25T06:52:35.311Z,1.47
2019-04-25T06:55:05.896Z,1.40
2019-04-25T06:57:35.385Z,1.57
2019-04-25T07:00:05.867Z,1.50
2019-04-25T07:02:35.323Z,1.23
2019-04-25T07:05:05.465Z,1.60
2019-04-25T07:07:35.207Z,1.40
2019-04-25T07:10:05.383Z,1.63
2019-04-25T07:12:36.039Z,1.20
2019-04-25T07:15:06.280Z,1.20
2019-04-25T07:17:35.986Z,1.40
2019-04-25T07:20:06.353Z,1.50
2019-04-25T07:22:36.252Z,1.70
2019-04-25T07:25:08.371Z,1.20
2019-04-25T07:28:08.865Z,1.20
2019-04-25T07:31:04.386Z,1.20
2019-04-25T07:33:45.966Z,1.30
2019-04-25T07:36:15.648Z,1.60
2019-04-25T07:38:45.140Z,1.60
2019-04-25T07:41:16.246Z,1.40
2019-04-25T07:43:45.882Z,1.43
2019-04-25T07:46:15.338Z,1.37
2019-04-25T07:48:44.816Z,1.13
2019-04-25T07:51:16.441Z,1.17
2019-04-25T07:53:45.429Z,1.40
2019-04-25T07:56:14.889Z,1.40
2019-04-25T07:58:50.347Z,1.10
2019-04-25T08:01:16.206Z,1.03
2019-04-25T08:03:45.824Z,1.00
2019-04-25T08:06:15.419Z,1.00
2019-04-25T08:08:44.911Z,0.85
2019-04-25T08:11:14.585Z,0.80
2019-04-25T08:14:07.970Z,0.90
2019-04-25T08:16:39.314Z,0.83
2019-04-25T08:19:08.783Z,1.10
2019-04-25T08:21:38.446Z,2.20
2019-04-25T08:24:08.015Z,0.93
2019-04-25T08:26:37.648Z,1.10
2019-04-25T08:29:07.063Z,1.15
2019-04-25T08:31:37.657Z,1.20
2019-04-25T08:34:07.272Z,1.30
2019-04-25T08:36:38.542Z,1.10
2019-04-25T08:39:09.962Z,1.65
2019-04-25T08:41:39.420Z,1.00
2019-04-25T08:44:08.908Z,0.88
2019-04-25T08:46:39.382Z,1.10
2019-04-25T08:49:31.235Z,1.15
2019-04-25T08:52:00.924Z,1.00
2019-04-25T08:54:48.266Z,1.00
2019-04-25T08:57:25.933Z,1.00
2019-04-25T09:00:02.088Z,1.12
2019-04-25T09:02:56.325Z,0.82
2019-04-25T09:05:31.865Z,1.05
2019-04-25T09:08:02.217Z,0.93
2019-04-25T09:10:32.725Z,0.62
2019-04-25T09:13:04.723Z,0.60
2019-04-25T09:15:36.387Z,0.90
2019-04-25T09:18:05.653Z,0.88
2019-04-25T09:20:39.345Z,1.00
2019-04-25T09:23:06.412Z,1.27
2019-04-25T09:25:36.721Z,0.95
2019-04-25T09:28:06.594Z,1.42
2019-04-25T09:30:37.020Z,1.07
2019-04-25T09:33:06.905Z,1.20
2019-04-25T09:35:36.396Z,0.98
2019-04-25T09:38:06.441Z,1.45
2019-04-25T09:40:36.141Z,0.68
2019-04-25T09:43:05.897Z,0.68
2019-04-25T09:45:50.893Z,0.68
2019-04-25T09:48:42.448Z,0.65
2019-04-25T09:51:33.588Z,0.93
2019-04-25T09:54:25.260Z,0.90
2019-04-25T09:56:58.160Z,0.60
2019-04-25T09:59:30.001Z,0.78
2019-04-25T10:01:58.743Z,0.68
2019-04-25T10:04:28.219Z,0.98
2019-04-25T10:06:57.714Z,0.50
2019-04-25T10:09:27.191Z,0.60
2019-04-25T10:11:56.666Z,0.62
2019-04-25T10:14:38.851Z,0.70
2019-04-25T10:17:08.505Z,0.70
2019-04-25T10:19:39.053Z,0.90
2019-04-25T10:22:08.662Z,0.75
2019-04-25T10:24:38.532Z,0.60
2019-04-25T10:27:08.570Z,0.60
2019-04-25T10:29:44.828Z,0.50
2019-04-25T10:32:10.426Z,0.68
2019-04-25T10:34:40.315Z,1.32
2019-04-25T10:37:10.696Z,0.62
2019-04-25T10:39:40.187Z,0.60
2019-04-25T10:42:09.758Z,0.40
2019-04-25T10:44:40.178Z,0.55
2019-04-25T10:47:10.093Z,1.05
2019-04-25T10:49:40.522Z,0.50
2019-04-25T10:52:10.350Z,0.88
2019-04-25T10:54:39.876Z,0.60
2019-04-25T10:57:09.314Z,0.82
2019-04-25T10:59:38.924Z,0.80
2019-04-25T11:02:09.494Z,0.53
2019-04-25T11:04:47.033Z,0.60
2019-04-25T11:07:15.245Z,0.88
2019-04-25T11:09:45.500Z,0.70
2019-04-25T11:12:16.558Z,0.80
2019-04-25T11:14:46.419Z,0.72
2019-04-25T11:17:16.130Z,1.15
2019-04-25T11:19:45.611Z,0.70
2019-04-25T11:22:15.631Z,0.55
2019-04-25T11:24:45.860Z,0.80
2019-04-25T11:27:15.453Z,0.68
2019-04-25T11:29:45.976Z,0.85
2019-04-25T11:32:19.793Z,0.50
2019-04-25T11:34:48.264Z,0.75
2019-04-25T11:37:18.837Z,0.50
2019-04-25T11:40:04.246Z,0.85
2019-04-25T11:42:33.959Z,0.90
2019-04-25T11:45:06.017Z,0.60
2019-04-25T11:47:35.881Z,0.78
2019-04-25T11:50:06.098Z,0.60
2019-04-25T11:52:35.595Z,0.75
2019-04-25T11:55:05.204Z,0.60
2019-04-25T11:57:34.776Z,0.70
2019-04-25T12:00:04.423Z,0.65
2019-04-25T12:02:34.406Z,0.50
2019-04-25T12:05:04.491Z,1.02
2019-04-25T12:07:34.331Z,0.65
2019-04-25T12:10:04.575Z,0.70
2019-04-25T12:12:37.010Z,0.70
2019-04-25T12:15:05.550Z,0.70
2019-04-25T12:17:35.333Z,0.53
2019-04-25T12:20:05.190Z,0.70
2019-04-25T12:22:34.688Z,0.90
2019-04-25T12:25:04.685Z,0.98
2019-04-25T12:27:34.358Z,0.72
2019-04-25T12:30:05.441Z,0.62
2019-04-25T12:32:35.396Z,0.93
2019-04-25T12:35:06.125Z,0.45
2019-04-25T12:37:35.739Z,0.50
2019-04-25T12:40:06.644Z,0.60
2019-04-25T12:42:36.222Z,0.65
2019-04-25T12:45:31.061Z,0.80
2019-04-25T12:48:01.633Z,0.80
2019-04-25T12:50:31.045Z,0.75
2019-04-25T12:53:00.530Z,0.50
2019-04-25T12:55:29.993Z,0.68
2019-04-25T12:57:59.469Z,0.47
2019-04-25T13:00:30.257Z,0.50
2019-04-25T13:02:59.733Z,0.50
2019-04-25T13:05:29.233Z,1.12
2019-04-25T13:07:59.933Z,0.47
2019-04-25T13:10:29.847Z,0.53
2019-04-25T13:12:59.337Z,0.45
2019-04-25T13:15:28.798Z,0.62
2019-04-25T13:17:58.265Z,0.60
2019-04-25T13:20:27.742Z,0.47
2019-04-25T13:22:57.238Z,0.53
2019-04-25T13:25:26.743Z,0.72
2019-04-25T13:28:06.761Z,0.60
2019-04-25T13:30:59.794Z,0.42
2019-04-25T13:33:35.773Z,0.40
2019-04-25T13:36:08.336Z,0.50
2019-04-25T13:38:37.847Z,0.70
2019-04-25T13:41:07.333Z,0.50
2019-04-25T13:43:36.821Z,0.80
2019-04-25T13:46:06.299Z,1.40
2019-04-25T13:48:35.791Z,0.70
2019-04-25T13:51:05.386Z,0.85
2019-04-25T13:53:34.850Z,0.65
2019-04-25T13:56:04.866Z,0.80
2019-04-25T13:58:34.653Z,0.95
2019-04-25T14:01:12.914Z,0.68
2019-04-25T14:03:36.326Z,0.88
2019-04-25T14:06:06.251Z,0.82
2019-04-25T14:08:35.755Z,1.10
2019-04-25T14:11:05.730Z,0.68
2019-04-25T14:13:35.318Z,0.78
2019-04-25T14:16:25.357Z,1.00
2019-04-25T14:19:29.420Z,0.80
2019-04-25T14:22:01.537Z,0.75
2019-04-25T14:24:32.310Z,0.85
2019-04-25T14:27:03.684Z,1.15
2019-04-25T14:29:33.212Z,1.07
2019-04-25T14:32:03.333Z,0.60
2019-04-25T14:34:33.828Z,0.80
2019-04-25T14:37:03.488Z,1.20
2019-04-25T14:39:33.365Z,1.17
2019-04-25T14:42:03.052Z,0.90
2019-04-25T14:44:33.517Z,0.68
2019-04-25T14:47:03.078Z,0.65
2019-04-25T14:49:32.937Z,1.00
2019-04-25T14:52:02.614Z,0.60
2019-04-25T14:54:41.194Z,0.90
2019-04-25T14:57:23.151Z,1.00
2019-04-25T14:59:53.689Z,0.80
2019-04-25T15:02:25.630Z,0.50
2019-04-25T15:04:55.258Z,0.57
2019-04-25T15:07:24.712Z,0.68
2019-04-25T15:09:54.512Z,0.82
2019-04-25T15:12:24.769Z,0.70
2019-04-25T15:14:54.395Z,0.80
2019-04-25T15:17:23.876Z,0.80
2019-04-25T15:19:53.345Z,0.80
2019-04-25T15:22:23.244Z,0.90
2019-04-25T15:24:53.700Z,1.10
2019-04-25T15:27:24.112Z,1.10
2019-04-25T15:29:54.352Z,1.20
2019-04-25T15:32:27.488Z,2.00
2019-04-25T15:34:58.019Z,4.30
2019-04-25T15:37:49.255Z,2.92
2019-04-25T15:40:25.496Z,1.85
2019-04-25T15:43:21.163Z,1.80
2019-04-25T15:46:21.825Z,1.20
2019-04-25T15:48:51.322Z,1.00
2019-04-25T15:51:20.829Z,1.20
2019-04-25T15:53:50.307Z,0.75
2019-04-25T15:56:19.794Z,0.72
2019-04-25T15:58:49.335Z,0.80
2019-04-25T16:01:18.990Z,0.82
2019-04-25T16:03:52.648Z,0.70
2019-04-25T16:06:22.193Z,0.50
2019-04-25T16:08:51.809Z,0.80
2019-04-25T16:11:21.308Z,1.37
2019-04-25T16:13:50.858Z,0.60
2019-04-25T16:16:20.303Z,0.53
2019-04-25T16:18:49.752Z,0.90
2019-04-25T16:21:19.214Z,0.53
2019-04-25T16:23:48.684Z,0.53
2019-04-25T16:26:18.280Z,0.85
2019-04-25T16:28:47.776Z,0.62
2019-04-25T16:31:19.859Z,0.40
2019-04-25T16:33:49.451Z,0.78
2019-04-25T16:36:19.017Z,0.50
2019-04-25T16:38:48.522Z,0.53
2019-04-25T16:41:19.444Z,0.60
2019-04-25T16:43:52.308Z,0.85
2019-04-25T16:46:22.573Z,0.80
2019-04-25T16:48:52.055Z,0.93
2019-04-25T16:51:21.546Z,0.62
2019-04-25T16:53:51.060Z,0.70
2019-04-25T16:56:20.535Z,0.88
2019-04-25T16:58:50.019Z,0.70
2019-04-25T17:01:19.463Z,0.88
2019-04-25T17:03:48.967Z,0.65
2019-04-25T17:06:18.575Z,0.47
2019-04-25T17:08:48.071Z,0.62
2019-04-25T17:11:18.100Z,0.90
2019-04-25T17:13:56.197Z,0.62
2019-04-25T17:16:53.398Z,0.85
2019-04-25T17:19:44.584Z,0.53
2019-04-25T17:22:14.245Z,0.60
2019-04-25T17:24:43.714Z,0.90
2019-04-25T17:27:14.070Z,0.80
2019-04-25T17:29:43.573Z,0.62
2019-04-25T17:32:49.478Z,0.88
2019-04-25T17:35:25.638Z,0.75
2019-04-25T17:38:02.690Z,1.00
2019-04-25T17:40:32.782Z,0.72
2019-04-25T17:43:10.832Z,0.72
2019-04-25T17:45:34.785Z,1.00
2019-04-25T17:48:04.464Z,1.00
2019-04-25T17:50:34.255Z,0.60
2019-04-25T17:53:03.840Z,1.00
2019-04-25T17:55:33.403Z,0.70
2019-04-25T17:58:03.127Z,0.85
2019-04-25T18:00:37.994Z,1.22
2019-04-25T18:03:10.585Z,0.90
2019-04-25T18:05:40.171Z,0.47
2019-04-25T18:08:09.642Z,0.68
2019-04-25T18:10:39.373Z,0.50
2019-04-25T18:13:09.568Z,0.90
2019-04-25T18:16:03.469Z,0.70
2019-04-25T18:18:54.801Z,0.75
2019-04-25T18:21:24.289Z,0.70
2019-04-25T18:24:11.218Z,0.98
2019-04-25T18:26:45.957Z,0.95
2019-04-25T18:29:15.753Z,0.75
2019-04-25T18:31:46.287Z,0.85
2019-04-25T18:34:23.316Z,0.53
2019-04-25T18:37:00.692Z,0.60
2019-04-25T18:39:35.401Z,1.05
2019-04-25T18:42:27.781Z,0.82
2019-04-25T18:44:57.258Z,1.00
2019-04-25T18:47:26.737Z,0.50
2019-04-25T18:49:56.246Z,0.65
2019-04-25T18:52:43.344Z,0.60
2019-04-25T18:55:19.981Z,0.57
2019-04-25T18:57:57.110Z,0.80
2019-04-25T19:00:44.250Z,1.12
2019-04-25T19:03:27.558Z,1.30
2019-04-25T19:06:06.201Z,0.95
2019-04-25T19:08:35.669Z,1.00
2019-04-25T19:11:06.160Z,0.75
2019-04-25T19:13:35.665Z,1.12
2019-04-25T19:16:05.137Z,0.78
2019-04-25T19:18:34.630Z,0.70
2019-04-25T19:21:05.117Z,1.00
2019-04-25T19:23:34.635Z,0.82
2019-04-25T19:26:04.105Z,0.90
2019-04-25T19:28:33.576Z,0.95
2019-04-25T19:31:03.051Z,0.72
2019-04-25T19:33:35.851Z,0.68
2019-04-25T19:36:03.628Z,0.90
2019-04-25T19:38:33.103Z,0.70
2019-04-25T19:41:20.013Z,0.68
2019-04-25T19:44:10.324Z,0.80
2019-04-25T19:46:42.793Z,0.85
2019-04-25T19:49:15.404Z,1.02
2019-04-25T19:51:45.160Z,0.72
2019-04-25T19:54:14.760Z,0.70
2019-04-25T19:56:45.307Z,0.98
2019-04-25T19:59:14.946Z,0.68
2019-04-25T20:01:44.405Z,0.78
2019-04-25T20:04:25.933Z,0.98
2019-04-25T20:07:12.915Z,0.68
2019-04-25T20:10:00.144Z,1.00
2019-04-25T20:12:33.095Z,1.07
2019-04-25T20:15:02.601Z,1.15
2019-04-25T20:17:32.078Z,0.90
2019-04-25T20:20:01.553Z,1.05
2019-04-25T20:22:31.033Z,1.27
2019-04-25T20:25:00.496Z,1.42
2019-04-25T20:27:29.962Z,1.10
2019-04-25T20:29:59.456Z,1.40
2019-04-25T20:32:28.915Z,1.30
2019-04-25T20:34:58.414Z,1.20
2019-04-25T20:37:27.898Z,1.30
2019-04-25T20:39:57.380Z,1.10
2019-04-25T20:42:26.836Z,1.22
2019-04-25T20:44:56.318Z,1.43
2019-04-25T20:47:25.800Z,1.53
2019-04-25T20:49:55.381Z,1.27
2019-04-25T20:52:24.873Z,1.40
2019-04-25T20:54:54.884Z,1.43
2019-04-25T20:57:24.556Z,1.13
2019-04-25T20:59:54.028Z,1.13
2019-04-25T21:02:23.499Z,1.47
2019-04-25T21:04:52.999Z,1.07
2019-04-25T21:07:22.499Z,1.13
2019-04-25T21:09:53.199Z,1.30
2019-04-25T21:12:22.734Z,1.20
2019-04-25T21:15:04.169Z,0.83
2019-04-25T21:17:40.238Z,1.13
2019-04-25T21:20:09.870Z,1.27
2019-04-25T21:22:39.332Z,1.37
2019-04-25T21:25:09.034Z,1.53
2019-04-25T21:27:38.520Z,1.37
2019-04-25T21:30:08.823Z,1.07
2019-04-25T21:32:55.510Z,1.13
2019-04-25T21:35:25.688Z,1.23
2019-04-25T21:37:55.456Z,1.30
2019-04-25T21:40:34.262Z,1.00
2019-04-25T21:43:08.099Z,1.40
2019-04-25T21:45:38.074Z,1.07
2019-04-25T21:48:08.110Z,1.50
2019-04-25T21:50:38.148Z,1.10
2019-04-25T21:53:08.148Z,1.10
2019-04-25T21:55:38.017Z,1.37
2019-04-25T21:58:07.903Z,0.97
2019-04-25T22:00:56.534Z,1.20
2019-04-25T22:03:26.892Z,1.27
2019-04-25T22:05:56.924Z,1.20
2019-04-25T22:08:26.438Z,1.20
2019-04-25T22:10:56.092Z,0.90
2019-04-25T22:13:25.880Z,1.20
2019-04-25T22:15:56.161Z,1.00
2019-04-25T22:18:26.716Z,1.00
2019-04-25T22:20:56.892Z,1.10
2019-04-25T22:23:26.604Z,0.97
2019-04-25T22:25:56.710Z,1.30
2019-04-25T22:28:27.541Z,1.00
2019-04-25T22:30:59.452Z,1.20
2019-04-25T22:33:45.134Z,1.00
2019-04-25T22:36:17.371Z,0.90
2019-04-25T22:38:48.969Z,0.90
2019-04-25T22:41:18.448Z,0.90
2019-04-25T22:43:53.011Z,1.10
2019-04-25T22:46:26.211Z,1.00
2019-04-25T22:48:54.219Z,0.80
2019-04-25T22:51:23.708Z,1.00
2019-04-25T22:53:53.376Z,1.00
2019-04-25T22:56:22.864Z,1.10
2019-04-25T22:58:52.334Z,0.90
2019-04-25T23:01:41.768Z,1.00
2019-04-25T23:04:30.191Z,0.70
2019-04-25T23:06:59.808Z,1.17
2019-04-25T23:09:31.264Z,0.80
2019-04-25T23:12:02.085Z,1.10
2019-04-25T23:14:31.834Z,0.80
2019-04-25T23:17:01.339Z,0.70
2019-04-25T23:19:30.802Z,0.70
2019-04-25T23:22:00.288Z,0.80
2019-04-25T23:24:32.501Z,0.90
2019-04-25T23:27:16.360Z,0.90
2019-04-25T23:29:45.881Z,1.10
2019-04-25T23:32:15.563Z,0.70
2019-04-25T23:34:45.049Z,0.80
2019-04-25T23:37:15.209Z,0.70
2019-04-25T23:39:45.012Z,0.87
2019-04-25T23:42:14.495Z,1.00
2019-04-25T23:44:45.169Z,0.87
2019-04-25T23:47:14.633Z,0.97
2019-04-25T23:49:44.129Z,0.93
2019-04-25T23:52:15.040Z,0.80
2019-04-25T23:54:44.797Z,1.10
2019-04-25T23:57:15.474Z,1.13
2019-04-25T23:59:45.235Z,0.90
